Time;durP1;ratioP1;P1;durP2;ratioP2;P2;SDS_P1;SDS_P2;PMS_P1;PMS_P2;Temp;Humidity;BMP_temperature;BMP_pressure;BME280_temperature;BME280_humidity;BME280_pressure;Samples;Min_cycle;Max_cycle;Signal;HPM_P1;HPM_P2
2022/10/25 02:36:53;;;;;;;;;;;24.90;99.90;;;;;;5109536;27;19916;-70
2022/10/25 02:39:23;;;;;;;;;;;25.20;99.90;;;;;;5109748;28;19916;-77
2022/10/25 02:41:49;;;;;;;;;;;25.30;99.90;;;;;;5110184;28;19912;-73
2022/10/25 02:45:14;;;;;;;;;;;25.20;99.90;;;;;;5171721;27;19919;-75
2022/10/25 02:47:40;;;;;;;;;;;25.00;99.90;;;;;;5166375;27;19964;-73
2022/10/25 02:50:07;;;;;;;;;;;24.80;99.90;;;;;;5151173;27;19919;-74
2022/10/25 02:52:34;;;;;;;;;;;24.70;99.90;;;;;;5151209;27;20001;-76
2022/10/25 02:55:01;;;;;;;;;;;24.70;99.90;;;;;;5150788;27;19915;-75
2022/10/25 02:57:37;;;;;;;;;;;24.80;99.90;;;;;;5151026;27;19998;-73
2022/10/25 03:00:05;;;;;;;;;;;24.90;99.90;;;;;;5151051;27;20288;-73
2022/10/25 03:02:31;;;;;;;;;;;25.00;99.90;;;;;;5150696;27;19980;-72
2022/10/25 03:04:58;;;;;;;;;;;24.70;99.90;;;;;;5150515;27;20384;-71
2022/10/25 03:07:25;;;;;;;;;;;24.50;99.90;;;;;;5150458;27;20349;-69
2022/10/25 03:09:51;;;;;;;;;;;24.30;99.90;;;;;;5150473;27;19954;-71
2022/10/25 03:12:18;;;;;;;;;;;24.20;99.90;;;;;;5150644;27;20404;-70
2022/10/25 03:14:45;;;;;;;;;;;24.00;99.90;;;;;;5150604;27;19918;-69
2022/10/25 03:17:11;;;;;;;;;;;24.00;99.90;;;;;;5150127;27;19911;-69
2022/10/25 03:19:38;;;;;;;;;;;23.90;99.90;;;;;;5150664;27;19908;-69
2022/10/25 03:22:05;;;;;;;;;;;23.70;99.90;;;;;;5150723;27;19908;-70
2022/10/25 03:24:31;;;;;;;;;;;23.70;99.90;;;;;;5150275;27;19981;-76
2022/10/25 03:26:59;;;;;;;;;;;23.70;99.90;;;;;;5131298;27;20323;-72
2022/10/25 03:29:25;;;;;;;;;;;23.70;99.90;;;;;;5150424;27;19919;-73
2022/10/25 03:31:52;;;;;;;;;;;23.70;99.90;;;;;;5150741;27;19973;-72
2022/10/25 03:34:19;;;;;;;;;;;23.70;99.90;;;;;;5150598;27;19908;-78
2022/10/25 03:36:45;;;;;;;;;;;23.70;99.90;;;;;;5150130;27;19917;-75
2022/10/25 03:39:12;;;;;;;;;;;23.70;99.90;;;;;;5149938;27;19911;-69
2022/10/25 03:41:39;;;;;;;;;;;23.60;99.90;;;;;;5149810;27;20289;-72
2022/10/25 03:44:05;;;;;;;;;;;23.60;99.90;;;;;;5150021;27;19921;-77
2022/10/25 03:46:32;;;;;;;;;;;23.60;99.90;;;;;;5149738;27;19915;-76
2022/10/25 03:48:58;;;;;;;;;;;23.60;99.90;;;;;;5149764;27;20370;-76
2022/10/25 03:51:25;;;;;;;;;;;23.60;99.90;;;;;;5149811;27;19907;-70
2022/10/25 03:53:52;;;;;;;;;;;23.50;99.90;;;;;;5149836;27;19954;-74
2022/10/25 03:56:18;;;;;;;;;;;23.50;99.90;;;;;;5137021;27;20365;-74
2022/10/25 03:58:45;;;;;;;;;;;23.40;99.90;;;;;;5136017;27;19907;-73
2022/10/25 04:01:12;;;;;;;;;;;23.40;99.90;;;;;;5135716;27;19916;-70
2022/10/25 04:03:38;;;;;;;;;;;23.30;99.90;;;;;;5135918;27;19915;-75
2022/10/25 04:06:06;;;;;;;;;;;23.40;99.90;;;;;;5135785;27;19908;-74
2022/10/25 04:08:32;;;;;;;;;;;23.30;99.90;;;;;;5135648;27;20006;-71
2022/10/25 04:10:59;;;;;;;;;;;23.20;99.90;;;;;;5135312;27;19911;-71
2022/10/25 04:13:26;;;;;;;;;;;23.10;99.90;;;;;;5135421;27;20308;-69
2022/10/25 04:15:53;;;;;;;;;;;23.10;99.90;;;;;;5135143;27;20326;-69
2022/10/25 04:18:20;;;;;;;;;;;23.10;99.90;;;;;;5135295;27;20308;-69
2022/10/25 04:20:46;;;;;;;;;;;23.10;99.90;;;;;;5135538;27;19915;-71
2022/10/25 04:23:13;;;;;;;;;;;23.20;99.90;;;;;;5135423;27;20335;-73
2022/10/25 04:25:40;;;;;;;;;;;23.30;99.90;;;;;;5135036;27;20372;-68
2022/10/25 04:28:06;;;;;;;;;;;23.30;99.90;;;;;;5135215;27;19911;-70
2022/10/25 04:30:33;;;;;;;;;;;23.20;99.90;;;;;;5135504;27;19912;-72
2022/10/25 04:33:00;;;;;;;;;;;23.10;99.90;;;;;;5134912;27;19911;-69
2022/10/25 04:35:26;;;;;;;;;;;23.00;99.90;;;;;;5134845;27;19946;-68
2022/10/25 04:37:55;;;;;;;;;;;22.90;99.90;;;;;;5134985;27;20254;-69
2022/10/25 04:40:22;;;;;;;;;;;22.80;99.90;;;;;;5135042;27;19914;-69
2022/10/25 04:42:49;;;;;;;;;;;22.80;99.90;;;;;;5134737;27;19911;-68
2022/10/25 04:45:15;;;;;;;;;;;22.80;99.90;;;;;;5134658;27;20331;-73
2022/10/25 04:47:43;;;;;;;;;;;22.80;99.90;;;;;;5134688;27;20274;-75
2022/10/25 04:50:10;;;;;;;;;;;22.70;99.90;;;;;;5135034;27;19915;-72
2022/10/25 04:52:36;;;;;;;;;;;22.70;99.90;;;;;;5134564;27;20595;-75
2022/10/25 04:55:03;;;;;;;;;;;22.70;99.90;;;;;;5134356;27;19983;-74
2022/10/25 04:57:30;;;;;;;;;;;22.50;99.90;;;;;;5134789;27;19908;-72
2022/10/25 04:59:57;;;;;;;;;;;22.40;99.90;;;;;;5134728;27;20308;-73
2022/10/25 05:02:24;;;;;;;;;;;22.30;99.90;;;;;;5116095;27;20006;-72
2022/10/25 05:04:50;;;;;;;;;;;22.30;99.90;;;;;;5134019;27;19919;-68
2022/10/25 05:07:17;;;;;;;;;;;22.20;99.90;;;;;;5133311;27;19918;-67
2022/10/25 05:09:44;;;;;;;;;;;22.20;99.90;;;;;;5134424;27;19933;-72
2022/10/25 05:12:11;;;;;;;;;;;22.10;99.90;;;;;;5134581;27;19969;-70
2022/10/25 05:14:37;;;;;;;;;;;22.10;99.90;;;;;;5134494;27;20265;-68
2022/10/25 05:17:04;;;;;;;;;;;22.10;99.90;;;;;;5133942;27;19907;-68
2022/10/25 05:19:31;;;;;;;;;;;22.00;99.90;;;;;;5134262;27;20278;-71
2022/10/25 05:21:57;;;;;;;;;;;22.00;99.90;;;;;;5134112;27;19911;-69
2022/10/25 05:24:24;;;;;;;;;;;22.00;99.90;;;;;;5115800;27;19915;-69
2022/10/25 05:26:51;;;;;;;;;;;22.00;99.90;;;;;;5133703;27;19919;-68
2022/10/25 05:29:17;;;;;;;;;;;21.90;99.90;;;;;;5134226;27;20285;-68
2022/10/25 05:31:44;;;;;;;;;;;21.90;99.90;;;;;;5133982;27;19912;-67
2022/10/25 05:34:11;;;;;;;;;;;21.90;99.90;;;;;;5133851;27;19935;-72
2022/10/25 05:36:37;;;;;;;;;;;21.90;99.90;;;;;;5133855;27;19914;-68
2022/10/25 05:39:04;;;;;;;;;;;21.80;99.90;;;;;;5133474;27;19914;-69
2022/10/25 05:41:31;;;;;;;;;;;21.70;99.90;;;;;;5133660;27;19917;-68
2022/10/25 05:43:58;;;;;;;;;;;21.70;99.90;;;;;;5133657;27;19920;-68
2022/10/25 05:46:25;;;;;;;;;;;21.80;99.90;;;;;;5133522;27;19926;-74
2022/10/25 05:48:52;;;;;;;;;;;21.70;99.90;;;;;;5133243;27;20331;-67
2022/10/25 05:51:23;;;;;;;;;;;21.80;99.90;;;;;;5132320;27;19911;-75
2022/10/25 05:53:51;;;;;;;;;;;21.80;99.90;;;;;;5131597;27;19954;-76
2022/10/25 05:56:19;;;;;;;;;;;21.80;99.90;;;;;;5131116;27;19956;-73
2022/10/25 05:58:46;;;;;;;;;;;21.90;99.90;;;;;;5131419;27;19907;-71
2022/10/25 06:01:14;;;;;;;;;;;22.00;99.90;;;;;;5131488;27;19911;-70
2022/10/25 06:03:41;;;;;;;;;;;22.00;99.90;;;;;;5131517;27;19915;-70
2022/10/25 06:06:09;;;;;;;;;;;22.10;99.90;;;;;;5130526;27;20297;-71
2022/10/25 06:08:36;;;;;;;;;;;22.10;99.90;;;;;;5131192;27;20373;-68
2022/10/25 06:11:04;;;;;;;;;;;22.10;99.90;;;;;;5131332;27;19919;-73
2022/10/25 06:13:31;;;;;;;;;;;22.00;99.90;;;;;;5131215;27;19911;-74
2022/10/25 06:15:58;;;;;;;;;;;22.00;99.90;;;;;;5130721;27;19908;-69
2022/10/25 06:18:24;;;;;;;;;;;22.10;99.90;;;;;;5130559;27;20420;-69
2022/10/25 06:20:51;;;;;;;;;;;22.20;99.90;;;;;;5131061;27;19998;-69
2022/10/25 06:23:18;;;;;;;;;;;22.20;99.90;;;;;;5130984;27;19922;-70
2022/10/25 06:25:44;;;;;;;;;;;22.30;99.90;;;;;;5131065;27;20003;-69
2022/10/25 06:28:11;;;;;;;;;;;22.40;99.90;;;;;;5130947;27;19998;-71
2022/10/25 06:30:38;;;;;;;;;;;22.60;99.90;;;;;;5130472;27;20306;-67
2022/10/25 06:33:04;;;;;;;;;;;22.70;99.90;;;;;;5131046;27;19969;-66
2022/10/25 06:35:32;;;;;;;;;;;22.70;99.90;;;;;;5130841;27;19911;-69
2022/10/25 06:38:01;;;;;;;;;;;22.60;99.90;;;;;;5130806;27;19907;-67
2022/10/25 06:40:28;;;;;;;;;;;22.50;99.90;;;;;;5132607;27;19946;-68
2022/10/25 06:42:55;;;;;;;;;;;22.40;99.90;;;;;;5130809;28;19915;-67
2022/10/25 06:45:23;;;;;;;;;;;22.20;99.90;;;;;;5130943;28;19998;-69
2022/10/25 06:47:49;;;;;;;;;;;22.20;99.90;;;;;;5131114;27;19908;-70
2022/10/25 06:50:16;;;;;;;;;;;22.10;99.90;;;;;;5130596;28;20389;-68
2022/10/25 06:52:43;;;;;;;;;;;22.00;99.90;;;;;;5130705;28;20391;-67
2022/10/25 06:55:10;;;;;;;;;;;22.00;99.90;;;;;;5130419;27;20300;-69
2022/10/25 06:57:36;;;;;;;;;;;22.00;99.90;;;;;;5130872;27;20384;-67
2022/10/25 07:00:03;;;;;;;;;;;21.90;99.90;;;;;;5130994;27;20177;-67
2022/10/25 07:02:30;;;;;;;;;;;21.90;99.90;;;;;;5131216;27;19937;-68
2022/10/25 07:04:56;;;;;;;;;;;21.80;99.90;;;;;;5129973;28;19927;-69
2022/10/25 07:07:23;;;;;;;;;;;21.80;99.90;;;;;;5112009;28;20309;-69
2022/10/25 07:09:50;;;;;;;;;;;21.70;99.90;;;;;;5131303;28;19908;-69
2022/10/25 07:12:17;;;;;;;;;;;21.70;99.90;;;;;;5130799;27;20003;-68
2022/10/25 07:14:44;;;;;;;;;;;21.60;99.90;;;;;;5131219;27;19956;-69
2022/10/25 07:17:10;;;;;;;;;;;21.60;99.90;;;;;;5131348;28;19914;-68
2022/10/25 07:19:37;;;;;;;;;;;21.50;99.90;;;;;;5131202;28;19936;-68
2022/10/25 07:22:03;;;;;;;;;;;21.50;99.90;;;;;;5132642;27;19968;-70
2022/10/25 07:24:30;;;;;;;;;;;21.40;99.90;;;;;;5133583;27;20010;-76
2022/10/25 07:26:57;;;;;;;;;;;21.30;99.90;;;;;;5133409;28;20360;-68
2022/10/25 07:29:24;;;;;;;;;;;21.30;99.90;;;;;;5132983;27;19972;-68
2022/10/25 07:31:51;;;;;;;;;;;21.20;99.90;;;;;;5135589;27;19990;-66
2022/10/25 07:34:19;;;;;;;;;;;21.10;99.90;;;;;;5134696;27;19954;-69
2022/10/25 07:36:45;;;;;;;;;;;21.10;99.90;;;;;;5134647;27;20078;-67
2022/10/25 07:39:12;;;;;;;;;;;21.10;99.90;;;;;;5135356;27;20301;-68
2022/10/25 07:41:39;;;;;;;;;;;21.00;99.90;;;;;;5135322;27;19914;-68
2022/10/25 07:44:05;;;;;;;;;;;21.00;99.90;;;;;;5135774;27;19995;-69
2022/10/25 07:46:32;;;;;;;;;;;21.00;99.90;;;;;;5134466;27;20019;-68
2022/10/25 07:48:59;;;;;;;;;;;21.00;99.90;;;;;;5134591;27;20672;-68
2022/10/25 07:51:26;;;;;;;;;;;21.00;99.90;;;;;;5135653;27;19911;-68
2022/10/25 07:53:53;;;;;;;;;;;21.00;99.90;;;;;;5116801;27;20464;-68
2022/10/25 07:56:20;;;;;;;;;;;21.00;99.90;;;;;;5135058;27;19911;-68
2022/10/25 07:58:47;;;;;;;;;;;21.00;99.90;;;;;;5134442;27;20327;-68
2022/10/25 08:01:17;;;;;;;;;;;21.00;99.90;;;;;;5135790;27;19964;-69
2022/10/25 08:03:43;;;;;;;;;;;21.00;99.90;;;;;;5136055;27;19924;-68
2022/10/25 08:06:10;;;;;;;;;;;21.00;99.90;;;;;;5145352;27;19911;-68
2022/10/25 08:08:37;;;;;;;;;;;21.00;99.90;;;;;;5142140;27;19912;-71
2022/10/25 08:11:06;;;;;;;;;;;21.00;99.90;;;;;;5142532;27;19972;-69
2022/10/25 08:13:37;;;;;;;;;;;20.90;99.90;;;;;;5150384;27;19915;-69
2022/10/25 08:16:04;;;;;;;;;;;20.90;99.90;;;;;;5154503;27;19915;-71
2022/10/25 08:18:31;;;;;;;;;;;20.80;99.90;;;;;;5151566;27;19907;-72
2022/10/25 08:20:59;;;;;;;;;;;20.80;99.90;;;;;;5134152;27;19922;-71
2022/10/25 08:23:26;;;;;;;;;;;20.70;99.90;;;;;;5151189;27;19919;-72
2022/10/25 08:25:53;;;;;;;;;;;20.60;99.90;;;;;;5152981;27;19908;-69
2022/10/25 08:28:20;;;;;;;;;;;20.60;99.90;;;;;;5152981;27;19914;-68
2022/10/25 08:30:46;;;;;;;;;;;20.50;99.90;;;;;;5152500;27;19912;-70
2022/10/25 08:33:13;;;;;;;;;;;20.50;99.90;;;;;;5153443;27;19907;-71
2022/10/25 08:35:39;;;;;;;;;;;20.50;99.90;;;;;;5154242;27;19914;-69
2022/10/25 08:38:06;;;;;;;;;;;20.40;99.90;;;;;;5153301;27;19911;-72
2022/10/25 08:40:42;;;;;;;;;;;20.40;99.90;;;;;;5153582;27;19915;-70
2022/10/25 08:43:17;;;;;;;;;;;20.40;99.90;;;;;;5147876;27;19962;-69
2022/10/25 08:45:54;;;;;;;;;;;20.30;99.90;;;;;;5141859;27;19911;-68
2022/10/25 08:48:23;;;;;;;;;;;20.30;99.90;;;;;;5140787;27;19971;-67
2022/10/25 08:50:52;;;;;;;;;;;20.20;99.90;;;;;;5138488;27;19942;-69
2022/10/25 08:53:28;;;;;;;;;;;20.20;99.90;;;;;;5148486;27;20025;-69
2022/10/25 08:55:57;;;;;;;;;;;20.20;99.90;;;;;;5150550;27;20006;-68
2022/10/25 08:58:26;;;;;;;;;;;20.20;99.90;;;;;;5149199;27;19923;-68
2022/10/25 09:00:53;;;;;;;;;;;20.20;99.90;;;;;;5148820;27;20709;-67
2022/10/25 09:03:24;;;;;;;;;;;20.20;99.90;;;;;;5148316;27;19914;-67
2022/10/25 09:05:51;;;;;;;;;;;20.20;99.90;;;;;;5128613;27;19915;-68
2022/10/25 09:08:17;;;;;;;;;;;20.20;99.90;;;;;;5127082;27;19915;-67
2022/10/25 09:10:50;;;;;;;;;;;20.10;99.90;;;;;;5131906;27;19915;-69
2022/10/25 09:13:19;;;;;;;;;;;20.10;99.90;;;;;;5128558;27;19917;-67
2022/10/25 09:16:00;;;;;;;;;;;20.10;99.90;;;;;;5125230;27;20327;-71
2022/10/25 09:18:49;;;;;;;;;;;20.10;99.90;;;;;;5125190;27;19964;-67
2022/10/25 09:21:25;;;;;;;;;;;20.10;99.90;;;;;;5116923;27;19919;-67
2022/10/25 09:24:04;;;;;;;;;;;20.10;99.90;;;;;;5125043;27;19962;-67
2022/10/25 09:26:53;;;;;;;;;;;20.10;99.90;;;;;;5125269;27;19919;-67
2022/10/25 09:29:40;;;;;;;;;;;20.10;99.90;;;;;;5125745;27;19961;-71
2022/10/25 09:32:18;;;;;;;;;;;20.00;99.90;;;;;;5124405;27;19918;-68
2022/10/25 09:34:45;;;;;;;;;;;20.00;99.90;;;;;;5125251;27;19911;-70
2022/10/25 09:37:17;;;;;;;;;;;20.00;99.90;;;;;;5125408;27;19931;-67
2022/10/25 09:39:52;;;;;;;;;;;20.00;99.90;;;;;;5125308;27;20406;-74
2022/10/25 09:42:21;;;;;;;;;;;20.00;99.90;;;;;;5125028;27;19912;-73
2022/10/25 09:44:51;;;;;;;;;;;20.00;99.90;;;;;;5124551;27;19924;-69
2022/10/25 09:47:17;;;;;;;;;;;20.00;99.90;;;;;;5106740;27;19922;-73
2022/10/25 09:49:53;;;;;;;;;;;20.00;99.90;;;;;;5125538;27;19916;-75
2022/10/25 09:52:24;;;;;;;;;;;20.00;99.90;;;;;;5125370;27;20026;-74
2022/10/25 09:55:10;;;;;;;;;;;20.00;99.90;;;;;;5124764;27;20109;-70
2022/10/25 09:57:36;;;;;;;;;;;20.10;99.90;;;;;;5125175;27;19964;-73
2022/10/25 10:00:03;;;;;;;;;;;20.00;99.90;;;;;;5125442;27;19912;-75
2022/10/25 10:02:30;;;;;;;;;;;20.10;99.90;;;;;;5125508;27;20307;-75
2022/10/25 10:04:56;;;;;;;;;;;20.10;99.90;;;;;;5124588;27;19919;-75
2022/10/25 10:07:27;;;;;;;;;;;20.00;99.90;;;;;;5125679;27;19915;-73
2022/10/25 10:09:55;;;;;;;;;;;20.00;99.90;;;;;;5132525;27;20486;-73
2022/10/25 10:12:36;;;;;;;;;;;20.00;99.90;;;;;;5152098;27;19910;-74
2022/10/25 10:15:08;;;;;;;;;;;19.90;99.90;;;;;;5151486;27;20330;-74
2022/10/25 10:17:35;;;;;;;;;;;19.90;99.90;;;;;;5152061;27;19918;-72
2022/10/25 10:20:08;;;;;;;;;;;19.90;99.90;;;;;;5151813;27;19919;-73
2022/10/25 10:22:36;;;;;;;;;;;19.90;99.90;;;;;;5133197;27;19922;-70
2022/10/25 10:25:03;;;;;;;;;;;19.90;99.90;;;;;;5151218;27;19919;-70
2022/10/25 10:27:32;;;;;;;;;;;19.90;99.90;;;;;;5151839;27;20386;-70
2022/10/25 10:29:59;;;;;;;;;;;19.90;99.90;;;;;;5151920;27;19911;-68
2022/10/25 10:32:28;;;;;;;;;;;19.90;99.90;;;;;;5151728;27;20349;-72
2022/10/25 10:34:57;;;;;;;;;;;19.90;99.90;;;;;;5151052;27;19911;-72
2022/10/25 10:37:23;;;;;;;;;;;19.90;99.90;;;;;;5151344;27;19934;-70
2022/10/25 10:39:54;;;;;;;;;;;20.00;99.90;;;;;;5151761;27;20487;-73
2022/10/25 10:42:41;;;;;;;;;;;20.00;99.90;;;;;;5151524;27;19963;-73
2022/10/25 10:45:08;;;;;;;;;;;20.00;99.90;;;;;;5150609;27;19923;-74
2022/10/25 10:47:35;;;;;;;;;;;20.10;99.90;;;;;;5146989;27;19912;-74
2022/10/25 10:50:11;;;;;;;;;;;20.10;99.90;;;;;;5130813;28;19907;-73
2022/10/25 10:52:44;;;;;;;;;;;20.10;99.90;;;;;;5130644;27;20281;-72
2022/10/25 10:55:18;;;;;;;;;;;20.20;99.90;;;;;;5112072;28;19950;-72
2022/10/25 10:57:45;;;;;;;;;;;20.20;99.90;;;;;;5130753;27;19915;-74
2022/10/25 11:00:22;;;;;;;;;;;20.20;99.90;;;;;;5130580;28;19915;-72
2022/10/25 11:02:49;;;;;;;;;;;20.30;99.90;;;;;;5132618;27;19916;-75
2022/10/25 11:05:29;;;;;;;;;;;20.30;99.90;;;;;;5133072;27;19916;-74
2022/10/25 11:07:57;;;;;;;;;;;20.30;99.90;;;;;;5136521;27;19911;-70
2022/10/25 11:10:28;;;;;;;;;;;20.30;99.90;;;;;;5132693;27;20285;-75
2022/10/25 11:13:05;;;;;;;;;;;20.40;99.90;;;;;;5134796;27;19994;-74
2022/10/25 11:15:37;;;;;;;;;;;20.40;99.90;;;;;;5136602;27;20384;-75
2022/10/25 11:18:04;;;;;;;;;;;20.40;99.90;;;;;;5135497;27;19956;-74
2022/10/25 11:20:38;;;;;;;;;;;20.40;99.90;;;;;;5134021;27;19953;-74
2022/10/25 11:23:17;;;;;;;;;;;20.40;99.90;;;;;;5134590;27;20369;-73
2022/10/25 11:25:54;;;;;;;;;;;20.40;99.90;;;;;;5134327;27;19947;-74
2022/10/25 11:28:37;;;;;;;;;;;20.40;99.90;;;;;;5134609;27;19912;-74
2022/10/25 11:31:10;;;;;;;;;;;20.40;99.90;;;;;;5134561;27;19915;-73
2022/10/25 11:33:39;;;;;;;;;;;20.40;99.90;;;;;;5134570;27;19908;-74
2022/10/25 11:36:06;;;;;;;;;;;20.40;99.90;;;;;;5135434;27;19922;-75
2022/10/25 11:38:51;;;;;;;;;;;20.50;99.90;;;;;;5136513;27;19911;-73
2022/10/25 11:41:30;;;;;;;;;;;20.50;99.90;;;;;;5136809;27;19908;-74
2022/10/25 11:43:56;;;;;;;;;;;20.50;99.90;;;;;;5136247;27;19920;-74
2022/10/25 11:46:32;;;;;;;;;;;20.60;99.90;;;;;;5136022;27;19964;-75
2022/10/25 11:49:16;;;;;;;;;;;20.60;99.90;;;;;;5135886;27;20335;-74
2022/10/25 11:51:52;;;;;;;;;;;20.60;99.90;;;;;;5135601;27;19947;-74
2022/10/25 11:54:35;;;;;;;;;;;20.50;99.90;;;;;;5136008;27;20438;-74
2022/10/25 11:57:02;;;;;;;;;;;20.50;99.90;;;;;;5135725;27;19907;-73
2022/10/25 11:59:37;;;;;;;;;;;20.40;99.90;;;;;;5135915;27;19907;-75
2022/10/25 12:02:20;;;;;;;;;;;20.40;99.90;;;;;;5136050;27;19914;-72
2022/10/25 12:04:52;;;;;;;;;;;20.30;99.90;;;;;;5134944;27;19919;-75
2022/10/25 12:07:25;;;;;;;;;;;20.30;99.90;;;;;;5135996;27;19998;-75
2022/10/25 12:10:10;;;;;;;;;;;20.20;99.90;;;;;;5135906;27;19914;-74
2022/10/25 12:12:49;;;;;;;;;;;20.10;99.90;;;;;;5135612;27;19995;-73
2022/10/25 12:15:20;;;;;;;;;;;20.00;99.90;;;;;;5128902;27;20324;-75
2022/10/25 12:17:48;;;;;;;;;;;20.00;99.90;;;;;;5126913;27;19911;-75
2022/10/25 12:20:21;;;;;;;;;;;19.80;99.90;;;;;;5127238;27;19916;-75
2022/10/25 12:22:49;;;;;;;;;;;19.90;99.90;;;;;;5126365;27;19925;-75
2022/10/25 12:25:51;;;;;;;;;;;19.80;99.90;;;;;;5126923;27;20358;-75
2022/10/25 12:28:18;;;;;;;;;;;19.70;99.90;;;;;;5042683;28;20016;-72
2022/10/25 12:30:45;;;;;;;;;;;19.70;99.90;;;;;;5109862;27;19922;-67
2022/10/25 12:33:15;;;;;;;;;;;19.60;99.90;;;;;;5127214;27;20751;-76
2022/10/25 12:35:49;;;;;;;;;;;19.60;99.90;;;;;;5126780;27;20349;-77
2022/10/25 12:38:34;;;;;;;;;;;19.50;99.90;;;;;;5126700;27;20072;-67
2022/10/25 12:41:09;;;;;;;;;;;19.50;99.90;;;;;;5126525;27;20401;-72
2022/10/25 12:43:36;;;;;;;;;;;19.40;99.90;;;;;;5126978;27;19989;-75
2022/10/25 12:46:22;;;;;;;;;;;19.40;99.90;;;;;;5134735;27;19976;-76
2022/10/25 12:49:04;;;;;;;;;;;19.40;99.90;;;;;;5134599;27;19911;-76
2022/10/25 12:51:34;;;;;;;;;;;19.40;99.90;;;;;;5134785;27;19908;-76
2022/10/25 12:54:24;;;;;;;;;;;19.40;99.90;;;;;;5134994;27;20370;-71
2022/10/25 12:57:09;;;;;;;;;;;19.40;99.90;;;;;;5134785;27;19908;-76
2022/10/25 12:59:56;;;;;;;;;;;19.40;99.90;;;;;;5134928;27;20458;-75
2022/10/25 13:02:22;;;;;;;;;;;19.40;99.90;;;;;;5134179;27;19953;-74
2022/10/25 13:04:54;;;;;;;;;;;19.50;99.90;;;;;;5133954;27;19919;-75
2022/10/25 13:07:22;;;;;;;;;;;19.50;99.90;;;;;;5134859;27;19992;-76
2022/10/25 13:09:49;;;;;;;;;;;19.50;99.90;;;;;;5134700;27;20314;-75
2022/10/25 13:12:21;;;;;;;;;;;19.50;99.90;;;;;;5134760;27;19931;-66
2022/10/25 13:14:58;;;;;;;;;;;19.50;99.90;;;;;;5134023;27;19912;-76
2022/10/25 13:17:24;;;;;;;;;;;19.50;99.90;;;;;;5134931;27;20250;-75
2022/10/25 13:19:52;;;;;;;;;;;19.40;99.90;;;;;;5134386;27;19964;-75
2022/10/25 13:22:29;;;;;;;;;;;19.40;99.90;;;;;;5134484;27;19914;-74
2022/10/25 13:25:01;;;;;;;;;;;19.40;99.90;;;;;;5133704;27;19923;-75
2022/10/25 13:27:29;;;;;;;;;;;19.30;99.90;;;;;;5133755;27;19990;-75
2022/10/25 13:30:02;;;;;;;;;;;19.30;99.90;;;;;;5134056;27;19943;-74
2022/10/25 13:32:30;;;;;;;;;;;19.30;99.90;;;;;;5134089;27;19914;-74
2022/10/25 13:34:57;;;;;;;;;;;19.30;99.90;;;;;;5133580;27;20392;-74
2022/10/25 13:37:30;;;;;;;;;;;19.30;99.90;;;;;;5133987;27;20295;-69
2022/10/25 13:40:02;;;;;;;;;;;19.40;99.90;;;;;;5133949;27;19908;-73
2022/10/25 13:42:36;;;;;;;;;;;19.50;99.90;;;;;;5134044;27;19911;-72
2022/10/25 13:45:03;;;;;;;;;;;19.50;99.90;;;;;;5129875;27;19924;-66
2022/10/25 13:47:32;;;;;;;;;;;19.50;99.90;;;;;;5125165;27;19919;-70
2022/10/25 13:49:59;;;;;;;;;;;19.60;99.90;;;;;;5125120;27;19957;-74
2022/10/25 13:52:32;;;;;;;;;;;19.60;99.90;;;;;;5125348;27;19919;-75
2022/10/25 13:55:02;;;;;;;;;;;19.60;99.90;;;;;;5125136;27;19912;-74
2022/10/25 13:57:46;;;;;;;;;;;19.60;99.90;;;;;;5125203;27;19945;-76
2022/10/25 14:00:21;;;;;;;;;;;19.60;99.90;;;;;;5125034;27;19920;-70
2022/10/25 14:03:06;;;;;;;;;;;19.60;99.90;;;;;;5125059;27;20008;-69
2022/10/25 14:05:51;;;;;;;;;;;19.50;99.90;;;;;;5124558;27;19926;-71
2022/10/25 14:08:21;;;;;;;;;;;19.50;99.90;;;;;;5125022;27;19918;-74
2022/10/25 14:10:49;;;;;;;;;;;19.50;99.90;;;;;;5124816;27;20110;-74
2022/10/25 14:13:24;;;;;;;;;;;19.50;99.90;;;;;;5124584;27;19911;-67
2022/10/25 14:15:57;;;;;;;;;;;19.50;99.90;;;;;;5133024;27;19911;-74
2022/10/25 14:18:24;;;;;;;;;;;19.50;99.90;;;;;;5133434;27;19920;-69
2022/10/25 14:21:08;;;;;;;;;;;19.50;99.90;;;;;;5132939;27;20002;-70
2022/10/25 14:23:36;;;;;;;;;;;19.50;99.90;;;;;;5133167;27;19911;-69
2022/10/25 14:26:05;;;;;;;;;;;19.40;99.90;;;;;;5132980;27;19912;-75
2022/10/25 14:28:34;;;;;;;;;;;19.40;99.90;;;;;;5133123;27;20367;-76
2022/10/25 14:31:04;;;;;;;;;;;19.40;99.90;;;;;;5133069;27;19916;-75
2022/10/25 14:33:44;;;;;;;;;;;19.40;99.90;;;;;;5133183;27;19950;-76
2022/10/25 14:36:11;;;;;;;;;;;19.40;99.90;;;;;;5132752;27;20377;-76
2022/10/25 14:38:53;;;;;;;;;;;19.40;99.90;;;;;;5132810;27;19930;-73
2022/10/25 14:41:21;;;;;;;;;;;19.40;99.90;;;;;;5133175;27;19937;-72
2022/10/25 14:43:48;;;;;;;;;;;19.30;99.90;;;;;;5114404;28;20014;-69
2022/10/25 14:46:16;;;;;;;;;;;19.40;99.90;;;;;;5132563;27;19952;-75
2022/10/25 14:48:46;;;;;;;;;;;19.40;99.90;;;;;;5133048;27;20001;-73
2022/10/25 14:51:18;;;;;;;;;;;19.40;99.90;;;;;;5132956;28;19998;-69
2022/10/25 14:54:04;;;;;;;;;;;19.40;99.90;;;;;;5133078;28;20318;-74
2022/10/25 14:56:34;;;;;;;;;;;19.40;99.90;;;;;;5132862;28;19993;-75
2022/10/25 14:59:01;;;;;;;;;;;19.40;99.90;;;;;;5132800;28;19911;-73
2022/10/25 15:01:28;;;;;;;;;;;19.40;99.90;;;;;;5132933;28;19911;-72
2022/10/25 15:03:56;;;;;;;;;;;19.40;99.90;;;;;;5132233;28;19915;-74
2022/10/25 15:06:24;;;;;;;;;;;19.40;99.90;;;;;;5132746;28;19998;-75
2022/10/25 15:08:54;;;;;;;;;;;19.40;99.90;;;;;;5132709;28;20362;-75
2022/10/25 15:11:21;;;;;;;;;;;19.40;99.90;;;;;;5132725;28;20080;-76
2022/10/25 15:13:48;;;;;;;;;;;19.40;99.90;;;;;;5132502;28;19919;-72
2022/10/25 15:16:24;;;;;;;;;;;19.40;99.90;;;;;;5132767;27;19956;-74
2022/10/25 15:19:09;;;;;;;;;;;19.40;99.90;;;;;;5132389;28;19912;-76
2022/10/25 15:21:39;;;;;;;;;;;19.40;99.90;;;;;;5132820;28;19914;-74
2022/10/25 15:24:07;;;;;;;;;;;19.40;99.90;;;;;;5132226;28;19923;-73
2022/10/25 15:26:34;;;;;;;;;;;19.40;99.90;;;;;;5132707;28;19920;-74
2022/10/25 15:29:01;;;;;;;;;;;19.40;99.90;;;;;;5132515;28;19911;-73
2022/10/25 15:31:29;;;;;;;;;;;19.40;99.90;;;;;;5114360;28;19916;-76
2022/10/25 15:33:57;;;;;;;;;;;19.40;99.90;;;;;;5132240;28;20373;-74
2022/10/25 15:36:25;;;;;;;;;;;19.40;99.90;;;;;;5132135;28;19915;-70
2022/10/25 15:38:59;;;;;;;;;;;19.40;99.90;;;;;;5132574;28;19907;-76
2022/10/25 15:41:26;;;;;;;;;;;19.40;99.90;;;;;;5132573;28;19912;-76
2022/10/25 15:43:53;;;;;;;;;;;19.50;99.90;;;;;;5131965;28;19957;-74
2022/10/25 15:46:24;;;;;;;;;;;19.40;99.90;;;;;;5132644;27;19912;-75
2022/10/25 15:48:51;;;;;;;;;;;19.40;99.90;;;;;;5132237;27;20417;-76
2022/10/25 15:51:18;;;;;;;;;;;19.40;99.90;;;;;;5115369;27;19907;-76
2022/10/25 15:53:48;;;;;;;;;;;19.40;99.90;;;;;;5135723;27;19912;-75
2022/10/25 15:56:16;;;;;;;;;;;19.40;99.90;;;;;;5136148;27;20380;-76
2022/10/25 15:58:43;;;;;;;;;;;19.40;99.90;;;;;;5136160;27;19953;-72
2022/10/25 16:01:10;;;;;;;;;;;19.40;99.90;;;;;;5136165;27;19907;-72
2022/10/25 16:03:36;;;;;;;;;;;19.40;99.90;;;;;;5135732;27;20296;-75
2022/10/25 16:06:03;;;;;;;;;;;19.40;99.90;;;;;;5135565;27;19998;-76
2022/10/25 16:08:30;;;;;;;;;;;19.40;99.90;;;;;;5136006;27;19916;-72
2022/10/25 16:10:58;;;;;;;;;;;19.40;99.90;;;;;;5135732;27;19950;-75
2022/10/25 16:13:27;;;;;;;;;;;19.40;99.90;;;;;;5117352;27;19970;-72
2022/10/25 16:15:54;;;;;;;;;;;19.40;99.90;;;;;;5135497;27;19925;-74
2022/10/25 16:18:23;;;;;;;;;;;19.40;99.90;;;;;;5135180;27;19965;-75
2022/10/25 16:20:50;;;;;;;;;;;19.40;99.90;;;;;;5135285;27;20009;-73
2022/10/25 16:23:17;;;;;;;;;;;19.40;99.90;;;;;;5135597;27;19957;-75
2022/10/25 16:25:44;;;;;;;;;;;19.40;99.90;;;;;;5135265;27;19922;-75
2022/10/25 16:28:14;;;;;;;;;;;19.40;99.90;;;;;;5135565;27;19915;-76
2022/10/25 16:30:42;;;;;;;;;;;19.40;99.90;;;;;;5135581;27;20257;-75
2022/10/25 16:33:09;;;;;;;;;;;19.40;99.90;;;;;;5135176;27;19950;-75
2022/10/25 16:35:35;;;;;;;;;;;19.40;99.90;;;;;;5134946;27;19922;-75
2022/10/25 16:38:03;;;;;;;;;;;19.40;99.90;;;;;;5135483;27;19908;-75
2022/10/25 16:40:30;;;;;;;;;;;19.40;99.90;;;;;;5135377;27;20345;-72
2022/10/25 16:42:57;;;;;;;;;;;19.40;99.90;;;;;;5134813;27;19955;-70
2022/10/25 16:45:37;;;;;;;;;;;19.30;99.90;;;;;;5134986;27;20216;-74
2022/10/25 16:48:04;;;;;;;;;;;19.30;99.90;;;;;;5135000;27;19953;-76
2022/10/25 16:50:31;;;;;;;;;;;19.30;99.90;;;;;;5135029;27;19912;-75
2022/10/25 16:53:02;;;;;;;;;;;19.30;99.90;;;;;;5134973;27;20305;-74
2022/10/25 16:55:29;;;;;;;;;;;19.30;99.90;;;;;;5134873;27;20010;-74
2022/10/25 16:58:00;;;;;;;;;;;19.20;99.90;;;;;;5135061;27;20312;-72
2022/10/25 17:00:27;;;;;;;;;;;19.20;99.90;;;;;;5134916;27;19911;-76
2022/10/25 17:02:54;;;;;;;;;;;19.30;99.90;;;;;;5134707;27;19973;-74
2022/10/25 17:05:23;;;;;;;;;;;19.20;99.90;;;;;;5134664;27;19965;-75
2022/10/25 17:07:50;;;;;;;;;;;19.20;99.90;;;;;;5134854;27;20270;-75